sensor_id;sensor_type;location;lat;lon;timestamp;temperature;humidity
65985;HTU21D;52748;51.112;5.880;2023-09-18T00:00:03;25.43;92.87
65985;HTU21D;52748;51.112;5.880;2023-09-18T00:02:33;25.40;92.95
65985;HTU21D;52748;51.112;5.880;2023-09-18T00:04:59;25.40;93.04
65985;HTU21D;52748;51.112;5.880;2023-09-18T00:07:25;25.39;93.10
65985;HTU21D;52748;51.112;5.880;2023-09-18T00:09:51;25.39;93.12
65985;HTU21D;52748;51.112;5.880;2023-09-18T00:12:17;25.40;92.82
65985;HTU21D;52748;51.112;5.880;2023-09-18T00:14:43;25.45;92.59
65985;HTU21D;52748;51.112;5.880;2023-09-18T00:17:08;25.45;92.44
65985;HTU21D;52748;51.112;5.880;2023-09-18T00:19:34;25.46;92.30
65985;HTU21D;52748;51.112;5.880;2023-09-18T00:22:00;25.46;92.24
65985;HTU21D;52748;51.112;5.880;2023-09-18T00:24:27;25.46;92.17
65985;HTU21D;52748;51.112;5.880;2023-09-18T00:26:53;25.47;92.09
65985;HTU21D;52748;51.112;5.880;2023-09-18T00:29:19;25.47;92.05
65985;HTU21D;52748;51.112;5.880;2023-09-18T00:31:45;25.45;92.14
65985;HTU21D;52748;51.112;5.880;2023-09-18T00:34:11;25.43;92.34
65985;HTU21D;52748;51.112;5.880;2023-09-18T00:36:37;25.40;92.53
65985;HTU21D;52748;51.112;5.880;2023-09-18T00:39:04;25.39;92.63
65985;HTU21D;52748;51.112;5.880;2023-09-18T00:41:30;25.39;92.66
65985;HTU21D;52748;51.112;5.880;2023-09-18T00:43:56;25.40;92.57
65985;HTU21D;52748;51.112;5.880;2023-09-18T00:46:22;25.42;92.34
65985;HTU21D;52748;51.112;5.880;2023-09-18T00:48:49;25.40;92.42
65985;HTU21D;52748;51.112;5.880;2023-09-18T00:51:16;25.40;92.31
65985;HTU21D;52748;51.112;5.880;2023-09-18T00:53:45;25.39;92.42
65985;HTU21D;52748;51.112;5.880;2023-09-18T00:56:15;25.37;92.51
65985;HTU21D;52748;51.112;5.880;2023-09-18T00:58:43;25.37;92.59
65985;HTU21D;52748;51.112;5.880;2023-09-18T01:01:09;25.37;92.63
65985;HTU21D;52748;51.112;5.880;2023-09-18T01:03:36;25.37;92.42
65985;HTU21D;52748;51.112;5.880;2023-09-18T01:06:02;25.37;92.46
65985;HTU21D;52748;51.112;5.880;2023-09-18T01:08:29;25.36;92.46
65985;HTU21D;52748;51.112;5.880;2023-09-18T01:11:03;25.37;92.49
65985;HTU21D;52748;51.112;5.880;2023-09-18T01:13:47;25.39;92.27
65985;HTU21D;52748;51.112;5.880;2023-09-18T01:16:32;25.40;91.94
65985;HTU21D;52748;51.112;5.880;2023-09-18T01:19:01;25.42;91.74
65985;HTU21D;52748;51.112;5.880;2023-09-18T01:21:29;25.42;91.73
65985;HTU21D;52748;51.112;5.880;2023-09-18T01:23:54;25.43;91.63
65985;HTU21D;52748;51.112;5.880;2023-09-18T01:26:22;25.46;91.38
65985;HTU21D;52748;51.112;5.880;2023-09-18T01:28:48;25.43;91.35
65985;HTU21D;52748;51.112;5.880;2023-09-18T01:31:14;25.39;91.57
65985;HTU21D;52748;51.112;5.880;2023-09-18T01:33:40;25.38;91.82
65985;HTU21D;52748;51.112;5.880;2023-09-18T01:36:08;25.37;91.96
65985;HTU21D;52748;51.112;5.880;2023-09-18T01:38:36;25.37;92.01
65985;HTU21D;52748;51.112;5.880;2023-09-18T01:41:02;25.36;92.07
65985;HTU21D;52748;51.112;5.880;2023-09-18T01:43:28;25.36;92.11
65985;HTU21D;52748;51.112;5.880;2023-09-18T01:45:55;25.36;92.15
65985;HTU21D;52748;51.112;5.880;2023-09-18T01:48:20;25.37;91.85
65985;HTU21D;52748;51.112;5.880;2023-09-18T01:50:46;25.37;91.92
65985;HTU21D;52748;51.112;5.880;2023-09-18T01:53:12;25.35;92.00
65985;HTU21D;52748;51.112;5.880;2023-09-18T01:55:38;25.38;91.82
65985;HTU21D;52748;51.112;5.880;2023-09-18T01:58:04;25.40;91.56
65985;HTU21D;52748;51.112;5.880;2023-09-18T02:00:30;25.38;91.61
65985;HTU21D;52748;51.112;5.880;2023-09-18T02:02:56;25.37;91.76
65985;HTU21D;52748;51.112;5.880;2023-09-18T02:05:22;25.36;91.84
65985;HTU21D;52748;51.112;5.880;2023-09-18T02:07:48;25.35;91.90
65985;HTU21D;52748;51.112;5.880;2023-09-18T02:10:14;25.36;91.92
65985;HTU21D;52748;51.112;5.880;2023-09-18T02:12:40;25.36;91.85
65985;HTU21D;52748;51.112;5.880;2023-09-18T02:15:07;25.36;91.88
65985;HTU21D;52748;51.112;5.880;2023-09-18T02:17:35;25.37;91.71
65985;HTU21D;52748;51.112;5.880;2023-09-18T02:20:03;25.36;91.68
65985;HTU21D;52748;51.112;5.880;2023-09-18T02:22:33;25.36;91.76
65985;HTU21D;52748;51.112;5.880;2023-09-18T02:24:59;25.37;91.63
65985;HTU21D;52748;51.112;5.880;2023-09-18T02:27:26;25.39;91.40
65985;HTU21D;52748;51.112;5.880;2023-09-18T02:29:52;25.39;91.24
65985;HTU21D;52748;51.112;5.880;2023-09-18T02:32:19;25.36;91.44
65985;HTU21D;52748;51.112;5.880;2023-09-18T02:34:45;25.37;91.52
65985;HTU21D;52748;51.112;5.880;2023-09-18T02:37:10;25.35;91.62
65985;HTU21D;52748;51.112;5.880;2023-09-18T02:39:36;25.33;91.69
65985;HTU21D;52748;51.112;5.880;2023-09-18T02:42:02;25.33;91.73
65985;HTU21D;52748;51.112;5.880;2023-09-18T02:44:28;25.32;91.70
65985;HTU21D;52748;51.112;5.880;2023-09-18T02:46:54;25.33;91.70
65985;HTU21D;52748;51.112;5.880;2023-09-18T02:49:20;25.34;91.58
65985;HTU21D;52748;51.112;5.880;2023-09-18T02:51:46;25.37;91.29
65985;HTU21D;52748;51.112;5.880;2023-09-18T02:54:12;25.38;91.18
65985;HTU21D;52748;51.112;5.880;2023-09-18T02:56:38;25.39;90.94
65985;HTU21D;52748;51.112;5.880;2023-09-18T02:59:04;25.40;90.76
65985;HTU21D;52748;51.112;5.880;2023-09-18T03:01:30;25.42;90.64
65985;HTU21D;52748;51.112;5.880;2023-09-18T03:03:56;25.42;90.49
65985;HTU21D;52748;51.112;5.880;2023-09-18T03:06:22;25.39;90.45
65985;HTU21D;52748;51.112;5.880;2023-09-18T03:08:47;25.36;90.66
65985;HTU21D;52748;51.112;5.880;2023-09-18T03:11:14;25.35;90.86
65985;HTU21D;52748;51.112;5.880;2023-09-18T03:13:46;25.33;91.02
65985;HTU21D;52748;51.112;5.880;2023-09-18T03:16:14;25.33;91.15
65985;HTU21D;52748;51.112;5.880;2023-09-18T03:18:40;25.34;91.21
65985;HTU21D;52748;51.112;5.880;2023-09-18T03:21:06;25.34;91.16
65985;HTU21D;52748;51.112;5.880;2023-09-18T03:23:32;25.36;90.92
65985;HTU21D;52748;51.112;5.880;2023-09-18T03:25:58;25.37;90.69
65985;HTU21D;52748;51.112;5.880;2023-09-18T03:28:26;25.35;90.67
65985;HTU21D;52748;51.112;5.880;2023-09-18T03:30:52;25.34;90.86
65985;HTU21D;52748;51.112;5.880;2023-09-18T03:33:21;25.33;90.95
65985;HTU21D;52748;51.112;5.880;2023-09-18T03:35:48;25.34;90.96
65985;HTU21D;52748;51.112;5.880;2023-09-18T03:38:16;25.35;90.70
65985;HTU21D;52748;51.112;5.880;2023-09-18T03:40:42;25.37;90.47
65985;HTU21D;52748;51.112;5.880;2023-09-18T03:43:10;25.37;90.33
65985;HTU21D;52748;51.112;5.880;2023-09-18T03:45:36;25.37;90.20
65985;HTU21D;52748;51.112;5.880;2023-09-18T03:48:02;25.35;90.39
65985;HTU21D;52748;51.112;5.880;2023-09-18T03:50:28;25.36;90.30
65985;HTU21D;52748;51.112;5.880;2023-09-18T03:52:54;25.37;90.11
65985;HTU21D;52748;51.112;5.880;2023-09-18T03:55:19;25.38;90.07
65985;HTU21D;52748;51.112;5.880;2023-09-18T03:57:45;25.34;90.28
65985;HTU21D;52748;51.112;5.880;2023-09-18T04:00:14;25.34;90.41
65985;HTU21D;52748;51.112;5.880;2023-09-18T04:02:41;25.35;90.22
65985;HTU21D;52748;51.112;5.880;2023-09-18T04:05:07;25.36;90.05
65985;HTU21D;52748;51.112;5.880;2023-09-18T04:07:34;25.35;90.05
65985;HTU21D;52748;51.112;5.880;2023-09-18T04:10:01;25.34;90.24
65985;HTU21D;52748;51.112;5.880;2023-09-18T04:12:28;25.33;90.17
65985;HTU21D;52748;51.112;5.880;2023-09-18T04:14:54;25.33;90.27
65985;HTU21D;52748;51.112;5.880;2023-09-18T04:17:19;25.34;90.27
65985;HTU21D;52748;51.112;5.880;2023-09-18T04:19:46;25.35;90.09
65985;HTU21D;52748;51.112;5.880;2023-09-18T04:22:12;25.34;89.97
65985;HTU21D;52748;51.112;5.880;2023-09-18T04:24:38;25.32;90.11
65985;HTU21D;52748;51.112;5.880;2023-09-18T04:27:04;25.31;90.30
65985;HTU21D;52748;51.112;5.880;2023-09-18T04:29:31;25.32;90.29
65985;HTU21D;52748;51.112;5.880;2023-09-18T04:31:57;25.31;90.37
65985;HTU21D;52748;51.112;5.880;2023-09-18T04:34:24;25.32;90.29
65985;HTU21D;52748;51.112;5.880;2023-09-18T04:36:50;25.33;90.15
65985;HTU21D;52748;51.112;5.880;2023-09-18T04:39:16;25.33;90.26
65985;HTU21D;52748;51.112;5.880;2023-09-18T04:41:42;25.31;90.33
65985;HTU21D;52748;51.112;5.880;2023-09-18T04:44:08;25.33;90.05
65985;HTU21D;52748;51.112;5.880;2023-09-18T04:46:36;25.31;90.13
65985;HTU21D;52748;51.112;5.880;2023-09-18T04:49:02;25.34;89.91
65985;HTU21D;52748;51.112;5.880;2023-09-18T04:51:31;25.34;89.86
65985;HTU21D;52748;51.112;5.880;2023-09-18T04:53:59;25.34;89.76
65985;HTU21D;52748;51.112;5.880;2023-09-18T04:56:25;25.32;89.93
65985;HTU21D;52748;51.112;5.880;2023-09-18T04:58:52;25.33;89.97
65985;HTU21D;52748;51.112;5.880;2023-09-18T05:01:18;25.31;90.01
65985;HTU21D;52748;51.112;5.880;2023-09-18T05:03:45;25.30;89.99
65985;HTU21D;52748;51.112;5.880;2023-09-18T05:06:10;25.30;90.06
65985;HTU21D;52748;51.112;5.880;2023-09-18T05:08:36;25.29;90.55
65985;HTU21D;52748;51.112;5.880;2023-09-18T05:11:03;25.29;90.31
65985;HTU21D;52748;51.112;5.880;2023-09-18T05:13:29;25.32;89.19
65985;HTU21D;52748;51.112;5.880;2023-09-18T05:15:55;25.31;88.43
65985;HTU21D;52748;51.112;5.880;2023-09-18T05:18:21;25.28;87.96
65985;HTU21D;52748;51.112;5.880;2023-09-18T05:20:47;25.29;88.36
65985;HTU21D;52748;51.112;5.880;2023-09-18T05:23:16;25.24;87.95
65985;HTU21D;52748;51.112;5.880;2023-09-18T05:25:42;25.27;87.51
65985;HTU21D;52748;51.112;5.880;2023-09-18T05:28:09;25.27;87.33
65985;HTU21D;52748;51.112;5.880;2023-09-18T05:30:36;25.24;88.01
65985;HTU21D;52748;51.112;5.880;2023-09-18T05:33:05;25.21;87.63
65985;HTU21D;52748;51.112;5.880;2023-09-18T05:35:42;25.20;87.28
65985;HTU21D;52748;51.112;5.880;2023-09-18T05:38:10;25.22;86.57
65985;HTU21D;52748;51.112;5.880;2023-09-18T05:40:37;25.18;86.43
65985;HTU21D;52748;51.112;5.880;2023-09-18T05:43:02;25.14;86.11
65985;HTU21D;52748;51.112;5.880;2023-09-18T05:45:28;25.10;86.02
65985;HTU21D;52748;51.112;5.880;2023-09-18T05:47:56;25.06;87.15
65985;HTU21D;52748;51.112;5.880;2023-09-18T05:50:30;25.02;87.09
65985;HTU21D;52748;51.112;5.880;2023-09-18T05:52:58;25.03;86.19
65985;HTU21D;52748;51.112;5.880;2023-09-18T05:55:38;25.02;85.60
65985;HTU21D;52748;51.112;5.880;2023-09-18T05:58:04;25.03;85.32
65985;HTU21D;52748;51.112;5.880;2023-09-18T06:00:33;25.04;85.03
65985;HTU21D;52748;51.112;5.880;2023-09-18T06:02:59;25.06;84.85
65985;HTU21D;52748;51.112;5.880;2023-09-18T06:05:25;25.05;84.37
65985;HTU21D;52748;51.112;5.880;2023-09-18T06:07:51;25.05;84.48
65985;HTU21D;52748;51.112;5.880;2023-09-18T06:10:17;25.05;83.90
65985;HTU21D;52748;51.112;5.880;2023-09-18T06:12:44;25.06;83.33
65985;HTU21D;52748;51.112;5.880;2023-09-18T06:15:11;25.05;83.34
65985;HTU21D;52748;51.112;5.880;2023-09-18T06:17:42;25.06;83.45
65985;HTU21D;52748;51.112;5.880;2023-09-18T06:20:10;25.07;83.72
65985;HTU21D;52748;51.112;5.880;2023-09-18T06:22:37;25.07;84.67
65985;HTU21D;52748;51.112;5.880;2023-09-18T06:25:05;25.08;85.19
65985;HTU21D;52748;51.112;5.880;2023-09-18T06:27:34;25.09;85.48
65985;HTU21D;52748;51.112;5.880;2023-09-18T06:30:00;25.12;85.25
65985;HTU21D;52748;51.112;5.880;2023-09-18T06:32:26;25.13;85.13
65985;HTU21D;52748;51.112;5.880;2023-09-18T06:34:51;25.14;84.97
65985;HTU21D;52748;51.112;5.880;2023-09-18T06:37:17;25.14;84.79
65985;HTU21D;52748;51.112;5.880;2023-09-18T06:39:44;25.14;84.78
65985;HTU21D;52748;51.112;5.880;2023-09-18T06:42:09;25.16;84.66
65985;HTU21D;52748;51.112;5.880;2023-09-18T06:44:35;25.18;84.28
65985;HTU21D;52748;51.112;5.880;2023-09-18T06:47:01;25.17;84.07
65985;HTU21D;52748;51.112;5.880;2023-09-18T06:49:27;25.18;83.84
65985;HTU21D;52748;51.112;5.880;2023-09-18T06:51:53;25.18;84.07
65985;HTU21D;52748;51.112;5.880;2023-09-18T06:54:19;25.18;83.99
65985;HTU21D;52748;51.112;5.880;2023-09-18T06:56:44;25.20;83.42
65985;HTU21D;52748;51.112;5.880;2023-09-18T06:59:10;25.23;83.14
65985;HTU21D;52748;51.112;5.880;2023-09-18T07:01:37;25.22;82.67
65985;HTU21D;52748;51.112;5.880;2023-09-18T07:04:03;25.24;82.67
65985;HTU21D;52748;51.112;5.880;2023-09-18T07:06:30;25.24;82.77
65985;HTU21D;52748;51.112;5.880;2023-09-18T07:08:56;25.23;83.00
65985;HTU21D;52748;51.112;5.880;2023-09-18T07:11:22;25.25;82.81
65985;HTU21D;52748;51.112;5.880;2023-09-18T07:13:48;25.25;82.58
65985;HTU21D;52748;51.112;5.880;2023-09-18T07:16:14;25.25;82.28
65985;HTU21D;52748;51.112;5.880;2023-09-18T07:18:39;25.23;82.58
65985;HTU21D;52748;51.112;5.880;2023-09-18T07:21:05;25.22;82.95
65985;HTU21D;52748;51.112;5.880;2023-09-18T07:23:31;25.23;82.71
65985;HTU21D;52748;51.112;5.880;2023-09-18T07:25:57;25.29;81.78
65985;HTU21D;52748;51.112;5.880;2023-09-18T07:28:25;25.24;81.80
65985;HTU21D;52748;51.112;5.880;2023-09-18T07:30:51;25.27;81.59
65985;HTU21D;52748;51.112;5.880;2023-09-18T07:33:17;25.27;81.64
65985;HTU21D;52748;51.112;5.880;2023-09-18T07:35:50;25.24;81.14
65985;HTU21D;52748;51.112;5.880;2023-09-18T07:38:18;25.24;81.60
65985;HTU21D;52748;51.112;5.880;2023-09-18T07:40:47;25.23;81.92
65985;HTU21D;52748;51.112;5.880;2023-09-18T07:43:13;25.24;81.68
65985;HTU21D;52748;51.112;5.880;2023-09-18T07:45:39;25.23;81.88
65985;HTU21D;52748;51.112;5.880;2023-09-18T07:48:06;25.22;82.35
65985;HTU21D;52748;51.112;5.880;2023-09-18T07:50:36;25.22;81.91
65985;HTU21D;52748;51.112;5.880;2023-09-18T07:53:02;25.24;81.76
65985;HTU21D;52748;51.112;5.880;2023-09-18T07:55:29;25.24;81.05
65985;HTU21D;52748;51.112;5.880;2023-09-18T07:57:55;25.21;81.04
65985;HTU21D;52748;51.112;5.880;2023-09-18T08:00:21;25.21;81.01
65985;HTU21D;52748;51.112;5.880;2023-09-18T08:02:49;25.21;81.10
65985;HTU21D;52748;51.112;5.880;2023-09-18T08:05:16;25.23;80.73
65985;HTU21D;52748;51.112;5.880;2023-09-18T08:07:42;25.23;80.43
65985;HTU21D;52748;51.112;5.880;2023-09-18T08:10:08;25.24;80.27
65985;HTU21D;52748;51.112;5.880;2023-09-18T08:12:35;25.24;79.96
65985;HTU21D;52748;51.112;5.880;2023-09-18T08:15:02;25.25;80.14
65985;HTU21D;52748;51.112;5.880;2023-09-18T08:17:30;25.24;80.54
65985;HTU21D;52748;51.112;5.880;2023-09-18T08:19:56;25.23;81.27
65985;HTU21D;52748;51.112;5.880;2023-09-18T08:22:22;25.22;81.58
65985;HTU21D;52748;51.112;5.880;2023-09-18T08:24:48;25.23;81.94
65985;HTU21D;52748;51.112;5.880;2023-09-18T08:27:14;25.22;81.97
65985;HTU21D;52748;51.112;5.880;2023-09-18T08:29:47;25.24;81.73
65985;HTU21D;52748;51.112;5.880;2023-09-18T08:32:13;25.22;80.98
65985;HTU21D;52748;51.112;5.880;2023-09-18T08:34:39;25.22;80.66
65985;HTU21D;52748;51.112;5.880;2023-09-18T08:37:05;25.24;80.46
65985;HTU21D;52748;51.112;5.880;2023-09-18T08:39:31;25.24;80.05
65985;HTU21D;52748;51.112;5.880;2023-09-18T08:42:07;25.23;80.27
65985;HTU21D;52748;51.112;5.880;2023-09-18T08:44:38;25.24;80.71
65985;HTU21D;52748;51.112;5.880;2023-09-18T08:47:08;25.25;80.98
65985;HTU21D;52748;51.112;5.880;2023-09-18T08:49:36;25.28;81.09
65985;HTU21D;52748;51.112;5.880;2023-09-18T08:52:03;25.28;81.19
65985;HTU21D;52748;51.112;5.880;2023-09-18T08:54:29;25.28;81.27
65985;HTU21D;52748;51.112;5.880;2023-09-18T08:56:55;25.25;81.46
65985;HTU21D;52748;51.112;5.880;2023-09-18T08:59:25;25.24;81.76
65985;HTU21D;52748;51.112;5.880;2023-09-18T09:01:53;25.23;81.70
65985;HTU21D;52748;51.112;5.880;2023-09-18T09:04:19;25.24;81.46
65985;HTU21D;52748;51.112;5.880;2023-09-18T09:06:45;25.23;81.70
65985;HTU21D;52748;51.112;5.880;2023-09-18T09:09:10;25.23;81.91
65985;HTU21D;52748;51.112;5.880;2023-09-18T09:11:39;25.23;82.05
65985;HTU21D;52748;51.112;5.880;2023-09-18T09:14:10;25.23;81.99
65985;HTU21D;52748;51.112;5.880;2023-09-18T09:16:39;25.25;81.94
65985;HTU21D;52748;51.112;5.880;2023-09-18T09:19:05;25.24;82.08
65985;HTU21D;52748;51.112;5.880;2023-09-18T09:21:42;25.22;82.24
65985;HTU21D;52748;51.112;5.880;2023-09-18T09:24:12;25.24;82.19
65985;HTU21D;52748;51.112;5.880;2023-09-18T09:26:41;25.27;82.04
65985;HTU21D;52748;51.112;5.880;2023-09-18T09:29:15;25.27;82.10
65985;HTU21D;52748;51.112;5.880;2023-09-18T09:31:44;25.28;82.09
65985;HTU21D;52748;51.112;5.880;2023-09-18T09:34:11;25.27;82.09
65985;HTU21D;52748;51.112;5.880;2023-09-18T09:36:36;25.28;82.09
65985;HTU21D;52748;51.112;5.880;2023-09-18T09:39:16;25.27;82.11
65985;HTU21D;52748;51.112;5.880;2023-09-18T09:41:45;25.25;82.30
65985;HTU21D;52748;51.112;5.880;2023-09-18T09:44:13;25.24;82.50
65985;HTU21D;52748;51.112;5.880;2023-09-18T09:46:50;25.25;82.42
65985;HTU21D;52748;51.112;5.880;2023-09-18T09:49:17;25.25;82.36
65985;HTU21D;52748;51.112;5.880;2023-09-18T09:51:46;25.25;82.36
65985;HTU21D;52748;51.112;5.880;2023-09-18T09:54:12;25.23;82.51
65985;HTU21D;52748;51.112;5.880;2023-09-18T09:56:49;25.25;82.59
65985;HTU21D;52748;51.112;5.880;2023-09-18T09:59:18;25.23;82.59
65985;HTU21D;52748;51.112;5.880;2023-09-18T10:01:48;25.24;82.65
65985;HTU21D;52748;51.112;5.880;2023-09-18T10:04:18;25.25;82.57
65985;HTU21D;52748;51.112;5.880;2023-09-18T10:06:52;25.23;82.60
65985;HTU21D;52748;51.112;5.880;2023-09-18T10:09:21;25.25;82.51
65985;HTU21D;52748;51.112;5.880;2023-09-18T10:11:56;25.27;82.36
65985;HTU21D;52748;51.112;5.880;2023-09-18T10:14:30;25.25;82.23
65985;HTU21D;52748;51.112;5.880;2023-09-18T10:16:59;25.24;82.29
65985;HTU21D;52748;51.112;5.880;2023-09-18T10:22:37;25.24;82.28
65985;HTU21D;52748;51.112;5.880;2023-09-18T10:25:11;25.23;82.26
65985;HTU21D;52748;51.112;5.880;2023-09-18T10:27:39;25.25;82.21
65985;HTU21D;52748;51.112;5.880;2023-09-18T10:30:08;25.25;82.13
65985;HTU21D;52748;51.112;5.880;2023-09-18T10:32:40;25.27;81.81
65985;HTU21D;52748;51.112;5.880;2023-09-18T10:35:07;25.29;81.48
65985;HTU21D;52748;51.112;5.880;2023-09-18T10:37:36;25.30;81.03
65985;HTU21D;52748;51.112;5.880;2023-09-18T10:40:05;25.31;80.74
65985;HTU21D;52748;51.112;5.880;2023-09-18T10:42:35;25.30;80.51
65985;HTU21D;52748;51.112;5.880;2023-09-18T10:45:04;25.30;80.48
65985;HTU21D;52748;51.112;5.880;2023-09-18T10:47:31;25.29;80.43
65985;HTU21D;52748;51.112;5.880;2023-09-18T10:49:58;25.28;80.42
65985;HTU21D;52748;51.112;5.880;2023-09-18T10:52:24;25.28;80.43
65985;HTU21D;52748;51.112;5.880;2023-09-18T10:54:50;25.29;80.33
65985;HTU21D;52748;51.112;5.880;2023-09-18T10:57:16;25.28;80.18
65985;HTU21D;52748;51.112;5.880;2023-09-18T10:59:46;25.30;79.97
65985;HTU21D;52748;51.112;5.880;2023-09-18T11:02:16;25.30;79.52
65985;HTU21D;52748;51.112;5.880;2023-09-18T11:04:44;25.32;79.30
65985;HTU21D;52748;51.112;5.880;2023-09-18T11:07:23;25.31;79.05
65985;HTU21D;52748;51.112;5.880;2023-09-18T11:09:50;25.31;78.77
65985;HTU21D;52748;51.112;5.880;2023-09-18T11:12:17;25.30;78.80
65985;HTU21D;52748;51.112;5.880;2023-09-18T11:14:59;25.30;78.57
65985;HTU21D;52748;51.112;5.880;2023-09-18T11:17:29;25.30;78.50
65985;HTU21D;52748;51.112;5.880;2023-09-18T11:22:55;25.29;78.22
65985;HTU21D;52748;51.112;5.880;2023-09-18T11:25:40;25.36;77.44
65985;HTU21D;52748;51.112;5.880;2023-09-18T11:28:25;25.34;77.40
65985;HTU21D;52748;51.112;5.880;2023-09-18T11:30:54;25.34;77.22
65985;HTU21D;52748;51.112;5.880;2023-09-18T11:33:39;25.35;77.01
65985;HTU21D;52748;51.112;5.880;2023-09-18T11:36:11;25.36;76.77
65985;HTU21D;52748;51.112;5.880;2023-09-18T11:38:54;25.36;76.34
65985;HTU21D;52748;51.112;5.880;2023-09-18T11:41:25;25.36;75.91
65985;HTU21D;52748;51.112;5.880;2023-09-18T11:44:04;25.36;75.52
65985;HTU21D;52748;51.112;5.880;2023-09-18T11:46:53;25.35;75.19
65985;HTU21D;52748;51.112;5.880;2023-09-18T11:49:24;25.37;75.09
65985;HTU21D;52748;51.112;5.880;2023-09-18T11:51:54;25.35;75.16
65985;HTU21D;52748;51.112;5.880;2023-09-18T11:54:23;25.34;75.15
65985;HTU21D;52748;51.112;5.880;2023-09-18T11:56:50;25.36;74.91
65985;HTU21D;52748;51.112;5.880;2023-09-18T11:59:16;25.35;74.90
65985;HTU21D;52748;51.112;5.880;2023-09-18T12:01:55;25.36;74.83
65985;HTU21D;52748;51.112;5.880;2023-09-18T12:04:30;25.37;74.73
65985;HTU21D;52748;51.112;5.880;2023-09-18T12:06:56;25.38;74.44
65985;HTU21D;52748;51.112;5.880;2023-09-18T12:09:26;25.38;74.28
65985;HTU21D;52748;51.112;5.880;2023-09-18T12:11:53;25.38;74.14
65985;HTU21D;52748;51.112;5.880;2023-09-18T12:14:21;25.38;74.18
65985;HTU21D;52748;51.112;5.880;2023-09-18T12:16:47;25.37;74.17
65985;HTU21D;52748;51.112;5.880;2023-09-18T12:19:19;25.37;73.98
65985;HTU21D;52748;51.112;5.880;2023-09-18T12:21:48;25.37;73.89
65985;HTU21D;52748;51.112;5.880;2023-09-18T12:24:24;25.38;73.57
65985;HTU21D;52748;51.112;5.880;2023-09-18T12:26:52;25.38;73.33
65985;HTU21D;52748;51.112;5.880;2023-09-18T12:29:21;25.39;73.22
65985;HTU21D;52748;51.112;5.880;2023-09-18T12:31:47;25.38;72.90
65985;HTU21D;52748;51.112;5.880;2023-09-18T12:34:18;25.37;72.87
65985;HTU21D;52748;51.112;5.880;2023-09-18T12:36:47;25.38;72.79
65985;HTU21D;52748;51.112;5.880;2023-09-18T12:39:14;25.38;72.72
65985;HTU21D;52748;51.112;5.880;2023-09-18T12:41:44;25.39;72.66
65985;HTU21D;52748;51.112;5.880;2023-09-18T12:44:10;25.38;72.66
65985;HTU21D;52748;51.112;5.880;2023-09-18T12:46:38;25.38;72.59
65985;HTU21D;52748;51.112;5.880;2023-09-18T12:49:23;25.38;72.59
65985;HTU21D;52748;51.112;5.880;2023-09-18T12:52:00;25.40;72.49
65985;HTU21D;52748;51.112;5.880;2023-09-18T12:57:07;25.39;72.60
65985;HTU21D;52748;51.112;5.880;2023-09-18T12:59:34;25.39;72.68
65985;HTU21D;52748;51.112;5.880;2023-09-18T13:02:02;25.40;72.51
65985;HTU21D;52748;51.112;5.880;2023-09-18T13:04:32;25.43;72.25
65985;HTU21D;52748;51.112;5.880;2023-09-18T13:07:11;25.44;72.09
65985;HTU21D;52748;51.112;5.880;2023-09-18T13:09:41;25.42;72.06
65985;HTU21D;52748;51.112;5.880;2023-09-18T13:12:07;25.40;72.08
65985;HTU21D;52748;51.112;5.880;2023-09-18T13:14:59;25.42;71.95
65985;HTU21D;52748;51.112;5.880;2023-09-18T13:17:26;25.43;71.82
65985;HTU21D;52748;51.112;5.880;2023-09-18T13:19:52;25.40;71.61
65985;HTU21D;52748;51.112;5.880;2023-09-18T13:22:25;25.40;71.25
65985;HTU21D;52748;51.112;5.880;2023-09-18T13:24:55;25.42;70.93
65985;HTU21D;52748;51.112;5.880;2023-09-18T13:27:22;25.42;70.46
65985;HTU21D;52748;51.112;5.880;2023-09-18T13:29:49;25.42;70.11
65985;HTU21D;52748;51.112;5.880;2023-09-18T13:32:15;25.44;69.65
65985;HTU21D;52748;51.112;5.880;2023-09-18T13:34:41;25.43;69.28
65985;HTU21D;52748;51.112;5.880;2023-09-18T13:37:06;25.45;68.98
65985;HTU21D;52748;51.112;5.880;2023-09-18T13:39:32;25.46;68.44
65985;HTU21D;52748;51.112;5.880;2023-09-18T13:41:58;25.46;68.13
65985;HTU21D;52748;51.112;5.880;2023-09-18T13:44:24;25.45;67.93
65985;HTU21D;52748;51.112;5.880;2023-09-18T13:46:50;25.44;68.07
65985;HTU21D;52748;51.112;5.880;2023-09-18T13:49:15;25.44;68.24
65985;HTU21D;52748;51.112;5.880;2023-09-18T13:51:41;25.44;68.33
65985;HTU21D;52748;51.112;5.880;2023-09-18T13:54:07;25.45;68.19
65985;HTU21D;52748;51.112;5.880;2023-09-18T13:56:33;25.46;67.96
65985;HTU21D;52748;51.112;5.880;2023-09-18T13:58:59;25.46;67.85
65985;HTU21D;52748;51.112;5.880;2023-09-18T14:01:25;25.45;67.84
65985;HTU21D;52748;51.112;5.880;2023-09-18T14:03:52;25.44;67.72
65985;HTU21D;52748;51.112;5.880;2023-09-18T14:06:19;25.44;67.55
65985;HTU21D;52748;51.112;5.880;2023-09-18T14:08:45;25.43;67.37
65985;HTU21D;52748;51.112;5.880;2023-09-18T14:11:10;25.44;67.20
65985;HTU21D;52748;51.112;5.880;2023-09-18T14:13:36;25.43;67.10
65985;HTU21D;52748;51.112;5.880;2023-09-18T14:16:02;25.45;66.78
65985;HTU21D;52748;51.112;5.880;2023-09-18T14:18:29;25.43;66.58
65985;HTU21D;52748;51.112;5.880;2023-09-18T14:20:55;25.44;66.43
65985;HTU21D;52748;51.112;5.880;2023-09-18T14:23:21;25.44;66.26
65985;HTU21D;52748;51.112;5.880;2023-09-18T14:25:47;25.45;65.98
65985;HTU21D;52748;51.112;5.880;2023-09-18T14:28:13;25.46;65.69
65985;HTU21D;52748;51.112;5.880;2023-09-18T14:30:39;25.48;65.46
65985;HTU21D;52748;51.112;5.880;2023-09-18T14:33:05;25.47;65.37
65985;HTU21D;52748;51.112;5.880;2023-09-18T14:35:33;25.46;65.35
65985;HTU21D;52748;51.112;5.880;2023-09-18T14:37:59;25.46;65.38
65985;HTU21D;52748;51.112;5.880;2023-09-18T14:40:25;25.46;65.24
65985;HTU21D;52748;51.112;5.880;2023-09-18T14:42:50;25.49;64.93
65985;HTU21D;52748;51.112;5.880;2023-09-18T14:45:17;25.47;64.88
65985;HTU21D;52748;51.112;5.880;2023-09-18T14:47:42;25.49;64.95
65985;HTU21D;52748;51.112;5.880;2023-09-18T14:50:09;25.47;64.94
65985;HTU21D;52748;51.112;5.880;2023-09-18T14:52:35;25.46;64.77
65985;HTU21D;52748;51.112;5.880;2023-09-18T14:55:01;25.47;64.46
65985;HTU21D;52748;51.112;5.880;2023-09-18T14:57:29;25.46;64.73
65985;HTU21D;52748;51.112;5.880;2023-09-18T14:59:55;25.48;64.51
65985;HTU21D;52748;51.112;5.880;2023-09-18T15:02:21;25.48;63.04
65985;HTU21D;52748;51.112;5.880;2023-09-18T15:04:47;25.51;62.73
65985;HTU21D;52748;51.112;5.880;2023-09-18T15:07:13;25.54;62.34
65985;HTU21D;52748;51.112;5.880;2023-09-18T15:09:39;25.57;61.64
65985;HTU21D;52748;51.112;5.880;2023-09-18T15:12:05;25.59;61.39
65985;HTU21D;52748;51.112;5.880;2023-09-18T15:14:35;25.60;61.02
65985;HTU21D;52748;51.112;5.880;2023-09-18T15:17:01;25.60;60.98
65985;HTU21D;52748;51.112;5.880;2023-09-18T15:19:27;25.61;61.48
65985;HTU21D;52748;51.112;5.880;2023-09-18T15:21:53;25.61;62.99
65985;HTU21D;52748;51.112;5.880;2023-09-18T15:24:21;25.60;62.37
65985;HTU21D;52748;51.112;5.880;2023-09-18T15:26:47;25.60;63.18